sensor_id;sensor_type;location;lat;lon;timestamp;P1;durP1;ratioP1;P2;durP2;ratioP2
51824;SDS011;37879;52.986;6.282;2023-04-24T00:00:14;2.70;;;1.67;;
51824;SDS011;37879;52.986;6.282;2023-04-24T00:02:44;2.40;;;1.30;;
51824;SDS011;37879;52.986;6.282;2023-04-24T00:05:12;1.88;;;1.00;;
51824;SDS011;37879;52.986;6.282;2023-04-24T00:07:39;3.30;;;1.15;;
51824;SDS011;37879;52.986;6.282;2023-04-24T00:10:05;3.20;;;1.35;;
51824;SDS011;37879;52.986;6.282;2023-04-24T00:12:31;2.13;;;1.27;;
51824;SDS011;37879;52.986;6.282;2023-04-24T00:14:57;3.08;;;0.93;;
51824;SDS011;37879;52.986;6.282;2023-04-24T00:17:22;1.33;;;0.63;;
51824;SDS011;37879;52.986;6.282;2023-04-24T00:19:48;1.38;;;1.00;;
51824;SDS011;37879;52.986;6.282;2023-04-24T00:22:23;1.80;;;0.80;;
51824;SDS011;37879;52.986;6.282;2023-04-24T00:24:49;1.48;;;1.00;;
51824;SDS011;37879;52.986;6.282;2023-04-24T00:27:15;3.15;;;1.40;;
51824;SDS011;37879;52.986;6.282;2023-04-24T00:29:40;1.30;;;0.90;;
51824;SDS011;37879;52.986;6.282;2023-04-24T00:32:06;1.52;;;0.65;;
51824;SDS011;37879;52.986;6.282;2023-04-24T00:34:32;2.03;;;0.95;;
51824;SDS011;37879;52.986;6.282;2023-04-24T00:36:57;1.05;;;0.68;;
51824;SDS011;37879;52.986;6.282;2023-04-24T00:39:23;1.17;;;0.70;;
51824;SDS011;37879;52.986;6.282;2023-04-24T00:41:49;1.70;;;0.60;;
51824;SDS011;37879;52.986;6.282;2023-04-24T00:44:16;1.33;;;0.70;;
51824;SDS011;37879;52.986;6.282;2023-04-24T00:46:42;1.02;;;0.85;;
51824;SDS011;37879;52.986;6.282;2023-04-24T00:49:07;1.23;;;0.82;;
51824;SDS011;37879;52.986;6.282;2023-04-24T00:51:33;2.05;;;0.77;;
51824;SDS011;37879;52.986;6.282;2023-04-24T00:53:59;1.35;;;0.73;;
51824;SDS011;37879;52.986;6.282;2023-04-24T00:56:26;1.45;;;0.85;;
51824;SDS011;37879;52.986;6.282;2023-04-24T00:58:52;1.30;;;0.82;;
51824;SDS011;37879;52.986;6.282;2023-04-24T01:01:19;2.05;;;0.85;;
51824;SDS011;37879;52.986;6.282;2023-04-24T01:03:49;1.38;;;0.80;;
51824;SDS011;37879;52.986;6.282;2023-04-24T01:06:16;1.30;;;0.60;;
51824;SDS011;37879;52.986;6.282;2023-04-24T01:08:43;0.90;;;0.60;;
51824;SDS011;37879;52.986;6.282;2023-04-24T01:11:09;1.30;;;1.05;;
51824;SDS011;37879;52.986;6.282;2023-04-24T01:13:35;1.52;;;1.00;;
51824;SDS011;37879;52.986;6.282;2023-04-24T01:16:01;1.08;;;0.80;;
51824;SDS011;37879;52.986;6.282;2023-04-24T01:18:27;2.28;;;0.98;;
51824;SDS011;37879;52.986;6.282;2023-04-24T01:20:54;1.73;;;0.93;;
51824;SDS011;37879;52.986;6.282;2023-04-24T01:23:23;1.25;;;0.90;;
51824;SDS011;37879;52.986;6.282;2023-04-24T01:25:49;1.70;;;0.93;;
51824;SDS011;37879;52.986;6.282;2023-04-24T01:28:15;2.22;;;1.10;;
51824;SDS011;37879;52.986;6.282;2023-04-24T01:30:42;1.70;;;1.23;;
51824;SDS011;37879;52.986;6.282;2023-04-24T01:33:08;1.80;;;1.30;;
51824;SDS011;37879;52.986;6.282;2023-04-24T01:35:34;1.42;;;1.23;;
51824;SDS011;37879;52.986;6.282;2023-04-24T01:38:01;3.88;;;1.48;;
51824;SDS011;37879;52.986;6.282;2023-04-24T01:40:27;3.03;;;1.60;;
51824;SDS011;37879;52.986;6.282;2023-04-24T01:42:52;5.15;;;1.90;;
51824;SDS011;37879;52.986;6.282;2023-04-24T01:45:18;1.73;;;1.35;;
51824;SDS011;37879;52.986;6.282;2023-04-24T01:47:44;3.22;;;1.85;;
51824;SDS011;37879;52.986;6.282;2023-04-24T01:50:11;2.45;;;1.70;;
51824;SDS011;37879;52.986;6.282;2023-04-24T01:52:37;2.85;;;2.00;;
51824;SDS011;37879;52.986;6.282;2023-04-24T01:55:03;2.42;;;1.63;;
51824;SDS011;37879;52.986;6.282;2023-04-24T01:57:30;4.35;;;2.22;;
51824;SDS011;37879;52.986;6.282;2023-04-24T01:59:56;4.28;;;2.40;;
51824;SDS011;37879;52.986;6.282;2023-04-24T02:02:22;3.10;;;2.22;;
51824;SDS011;37879;52.986;6.282;2023-04-24T02:04:56;6.75;;;3.70;;
51824;SDS011;37879;52.986;6.282;2023-04-24T02:07:22;4.70;;;3.00;;
51824;SDS011;37879;52.986;6.282;2023-04-24T02:09:48;4.65;;;3.17;;
51824;SDS011;37879;52.986;6.282;2023-04-24T02:12:16;3.83;;;2.88;;
51824;SDS011;37879;52.986;6.282;2023-04-24T02:14:42;6.82;;;3.20;;
51824;SDS011;37879;52.986;6.282;2023-04-24T02:17:09;3.97;;;3.40;;
51824;SDS011;37879;52.986;6.282;2023-04-24T02:19:38;5.53;;;4.20;;
51824;SDS011;37879;52.986;6.282;2023-04-24T02:22:04;5.15;;;3.50;;
51824;SDS011;37879;52.986;6.282;2023-04-24T02:24:29;4.82;;;3.80;;
51824;SDS011;37879;52.986;6.282;2023-04-24T02:26:55;7.75;;;4.30;;
51824;SDS011;37879;52.986;6.282;2023-04-24T02:29:20;5.78;;;4.43;;
51824;SDS011;37879;52.986;6.282;2023-04-24T02:31:46;6.00;;;4.70;;
51824;SDS011;37879;52.986;6.282;2023-04-24T02:34:12;5.93;;;4.70;;
51824;SDS011;37879;52.986;6.282;2023-04-24T02:36:37;6.57;;;4.97;;
51824;SDS011;37879;52.986;6.282;2023-04-24T02:39:03;5.60;;;4.70;;
51824;SDS011;37879;52.986;6.282;2023-04-24T02:41:28;5.90;;;4.60;;
51824;SDS011;37879;52.986;6.282;2023-04-24T02:43:57;6.35;;;5.32;;
51824;SDS011;37879;52.986;6.282;2023-04-24T02:46:23;6.32;;;4.93;;
51824;SDS011;37879;52.986;6.282;2023-04-24T02:48:49;6.93;;;5.47;;
51824;SDS011;37879;52.986;6.282;2023-04-24T02:51:15;6.75;;;6.00;;
51824;SDS011;37879;52.986;6.282;2023-04-24T02:53:40;6.85;;;6.07;;
51824;SDS011;37879;52.986;6.282;2023-04-24T02:56:06;6.25;;;5.65;;
51824;SDS011;37879;52.986;6.282;2023-04-24T02:58:32;8.07;;;6.38;;
51824;SDS011;37879;52.986;6.282;2023-04-24T03:00:57;7.25;;;6.55;;
51824;SDS011;37879;52.986;6.282;2023-04-24T03:03:23;6.25;;;5.63;;
51824;SDS011;37879;52.986;6.282;2023-04-24T03:05:49;6.28;;;5.65;;
51824;SDS011;37879;52.986;6.282;2023-04-24T03:08:15;7.28;;;5.50;;
51824;SDS011;37879;52.986;6.282;2023-04-24T03:10:41;7.05;;;6.35;;
51824;SDS011;37879;52.986;6.282;2023-04-24T03:13:07;7.40;;;5.95;;
51824;SDS011;37879;52.986;6.282;2023-04-24T03:15:32;6.57;;;5.97;;
51824;SDS011;37879;52.986;6.282;2023-04-24T03:17:58;7.53;;;6.03;;
51824;SDS011;37879;52.986;6.282;2023-04-24T03:20:25;6.63;;;5.70;;
51824;SDS011;37879;52.986;6.282;2023-04-24T03:22:51;6.75;;;5.65;;
51824;SDS011;37879;52.986;6.282;2023-04-24T03:25:16;9.65;;;5.47;;
51824;SDS011;37879;52.986;6.282;2023-04-24T03:27:42;6.68;;;5.57;;
51824;SDS011;37879;52.986;6.282;2023-04-24T03:30:08;6.18;;;4.97;;
51824;SDS011;37879;52.986;6.282;2023-04-24T03:32:34;4.78;;;4.35;;
51824;SDS011;37879;52.986;6.282;2023-04-24T03:34:59;8.20;;;5.60;;
51824;SDS011;37879;52.986;6.282;2023-04-24T03:37:25;5.60;;;4.95;;
51824;SDS011;37879;52.986;6.282;2023-04-24T03:39:51;8.57;;;5.63;;
51824;SDS011;37879;52.986;6.282;2023-04-24T03:42:17;6.65;;;5.55;;
51824;SDS011;37879;52.986;6.282;2023-04-24T03:44:43;5.47;;;4.10;;
51824;SDS011;37879;52.986;6.282;2023-04-24T03:47:08;5.88;;;4.85;;
51824;SDS011;37879;52.986;6.282;2023-04-24T03:49:34;5.88;;;4.30;;
51824;SDS011;37879;52.986;6.282;2023-04-24T03:52:00;5.78;;;4.63;;
51824;SDS011;37879;52.986;6.282;2023-04-24T03:54:26;5.32;;;4.40;;
51824;SDS011;37879;52.986;6.282;2023-04-24T03:56:51;3.70;;;3.22;;
51824;SDS011;37879;52.986;6.282;2023-04-24T03:59:17;6.90;;;3.70;;
51824;SDS011;37879;52.986;6.282;2023-04-24T04:01:43;4.75;;;3.65;;
51824;SDS011;37879;52.986;6.282;2023-04-24T04:04:08;6.35;;;4.40;;
51824;SDS011;37879;52.986;6.282;2023-04-24T04:06:34;4.85;;;4.00;;
51824;SDS011;37879;52.986;6.282;2023-04-24T04:09:01;5.65;;;4.30;;
51824;SDS011;37879;52.986;6.282;2023-04-24T04:11:27;4.65;;;4.05;;
51824;SDS011;37879;52.986;6.282;2023-04-24T04:13:52;5.88;;;4.22;;
51824;SDS011;37879;52.986;6.282;2023-04-24T04:16:18;4.60;;;3.78;;
51824;SDS011;37879;52.986;6.282;2023-04-24T04:18:44;5.13;;;3.83;;
51824;SDS011;37879;52.986;6.282;2023-04-24T04:21:10;6.13;;;4.50;;
51824;SDS011;37879;52.986;6.282;2023-04-24T04:23:36;7.45;;;5.05;;
51824;SDS011;37879;52.986;6.282;2023-04-24T04:26:02;4.57;;;3.92;;
51824;SDS011;37879;52.986;6.282;2023-04-24T04:28:29;5.32;;;4.10;;
51824;SDS011;37879;52.986;6.282;2023-04-24T04:30:56;7.65;;;5.15;;
51824;SDS011;37879;52.986;6.282;2023-04-24T04:33:22;5.97;;;4.85;;
51824;SDS011;37879;52.986;6.282;2023-04-24T04:35:49;4.80;;;3.67;;
51824;SDS011;37879;52.986;6.282;2023-04-24T04:38:17;6.85;;;4.47;;
51824;SDS011;37879;52.986;6.282;2023-04-24T04:40:43;5.97;;;4.78;;
51824;SDS011;37879;52.986;6.282;2023-04-24T04:43:09;4.82;;;3.65;;
51824;SDS011;37879;52.986;6.282;2023-04-24T04:45:36;5.10;;;4.03;;
51824;SDS011;37879;52.986;6.282;2023-04-24T04:48:03;3.92;;;2.28;;
51824;SDS011;37879;52.986;6.282;2023-04-24T04:50:29;3.83;;;2.83;;
51824;SDS011;37879;52.986;6.282;2023-04-24T04:52:55;2.40;;;1.70;;
51824;SDS011;37879;52.986;6.282;2023-04-24T04:55:21;2.40;;;1.52;;
51824;SDS011;37879;52.986;6.282;2023-04-24T04:57:53;1.55;;;1.23;;
51824;SDS011;37879;52.986;6.282;2023-04-24T05:00:20;1.70;;;1.20;;
51824;SDS011;37879;52.986;6.282;2023-04-24T05:02:46;1.40;;;1.00;;
51824;SDS011;37879;52.986;6.282;2023-04-24T05:05:11;1.70;;;1.08;;
51824;SDS011;37879;52.986;6.282;2023-04-24T05:07:37;1.80;;;0.82;;
51824;SDS011;37879;52.986;6.282;2023-04-24T05:10:03;1.17;;;0.77;;
51824;SDS011;37879;52.986;6.282;2023-04-24T05:12:29;2.63;;;1.08;;
51824;SDS011;37879;52.986;6.282;2023-04-24T05:14:54;1.00;;;0.70;;
51824;SDS011;37879;52.986;6.282;2023-04-24T05:17:20;1.50;;;0.85;;
51824;SDS011;37879;52.986;6.282;2023-04-24T05:19:46;2.17;;;1.15;;
51824;SDS011;37879;52.986;6.282;2023-04-24T05:22:11;1.58;;;0.88;;
51824;SDS011;37879;52.986;6.282;2023-04-24T05:24:37;2.05;;;1.42;;
51824;SDS011;37879;52.986;6.282;2023-04-24T05:27:03;2.95;;;1.55;;
51824;SDS011;37879;52.986;6.282;2023-04-24T05:29:32;2.42;;;1.48;;
51824;SDS011;37879;52.986;6.282;2023-04-24T05:31:58;3.28;;;1.90;;
51824;SDS011;37879;52.986;6.282;2023-04-24T05:34:24;2.92;;;1.70;;
51824;SDS011;37879;52.986;6.282;2023-04-24T05:36:50;2.55;;;1.63;;
51824;SDS011;37879;52.986;6.282;2023-04-24T05:39:16;2.42;;;1.40;;
51824;SDS011;37879;52.986;6.282;2023-04-24T05:41:42;2.53;;;1.60;;
51824;SDS011;37879;52.986;6.282;2023-04-24T05:44:08;2.70;;;1.38;;
51824;SDS011;37879;52.986;6.282;2023-04-24T05:46:33;4.05;;;1.77;;
51824;SDS011;37879;52.986;6.282;2023-04-24T05:48:59;3.03;;;1.95;;
51824;SDS011;37879;52.986;6.282;2023-04-24T05:51:25;2.97;;;2.00;;
51824;SDS011;37879;52.986;6.282;2023-04-24T05:53:51;3.63;;;2.22;;
51824;SDS011;37879;52.986;6.282;2023-04-24T05:56:17;3.53;;;1.90;;
51824;SDS011;37879;52.986;6.282;2023-04-24T05:58:43;4.28;;;2.78;;
51824;SDS011;37879;52.986;6.282;2023-04-24T06:01:10;5.80;;;2.58;;
51824;SDS011;37879;52.986;6.282;2023-04-24T06:03:35;3.55;;;2.15;;
51824;SDS011;37879;52.986;6.282;2023-04-24T06:06:01;3.65;;;2.13;;
51824;SDS011;37879;52.986;6.282;2023-04-24T06:08:26;3.35;;;1.73;;
51824;SDS011;37879;52.986;6.282;2023-04-24T06:10:52;3.25;;;1.48;;
51824;SDS011;37879;52.986;6.282;2023-04-24T06:13:18;3.63;;;1.85;;
51824;SDS011;37879;52.986;6.282;2023-04-24T06:15:43;2.75;;;2.28;;
51824;SDS011;37879;52.986;6.282;2023-04-24T06:18:09;4.57;;;3.13;;
51824;SDS011;37879;52.986;6.282;2023-04-24T06:20:37;7.60;;;3.97;;
51824;SDS011;37879;52.986;6.282;2023-04-24T06:23:04;6.00;;;3.33;;
51824;SDS011;37879;52.986;6.282;2023-04-24T06:25:29;6.80;;;3.65;;
51824;SDS011;37879;52.986;6.282;2023-04-24T06:27:55;4.10;;;2.67;;
51824;SDS011;37879;52.986;6.282;2023-04-24T06:30:21;4.50;;;2.60;;
51824;SDS011;37879;52.986;6.282;2023-04-24T06:32:47;4.25;;;2.38;;
51824;SDS011;37879;52.986;6.282;2023-04-24T06:35:13;2.50;;;1.48;;
51824;SDS011;37879;52.986;6.282;2023-04-24T06:37:42;3.08;;;1.70;;
51824;SDS011;37879;52.986;6.282;2023-04-24T06:40:08;4.15;;;1.52;;
51824;SDS011;37879;52.986;6.282;2023-04-24T06:42:35;4.07;;;1.92;;
51824;SDS011;37879;52.986;6.282;2023-04-24T06:45:01;3.05;;;1.73;;
51824;SDS011;37879;52.986;6.282;2023-04-24T06:47:27;3.50;;;1.70;;
51824;SDS011;37879;52.986;6.282;2023-04-24T06:49:52;2.22;;;1.48;;
51824;SDS011;37879;52.986;6.282;2023-04-24T06:52:19;2.50;;;1.67;;
51824;SDS011;37879;52.986;6.282;2023-04-24T06:54:44;3.85;;;1.67;;
51824;SDS011;37879;52.986;6.282;2023-04-24T06:57:10;1.95;;;1.08;;
51824;SDS011;37879;52.986;6.282;2023-04-24T06:59:36;2.38;;;1.45;;
51824;SDS011;37879;52.986;6.282;2023-04-24T07:02:02;3.58;;;1.08;;
51824;SDS011;37879;52.986;6.282;2023-04-24T07:04:28;2.95;;;1.50;;
51824;SDS011;37879;52.986;6.282;2023-04-24T07:06:54;2.40;;;1.30;;
51824;SDS011;37879;52.986;6.282;2023-04-24T07:09:21;3.58;;;1.50;;
51824;SDS011;37879;52.986;6.282;2023-04-24T07:11:48;2.90;;;1.60;;
51824;SDS011;37879;52.986;6.282;2023-04-24T07:14:15;1.92;;;1.15;;
51824;SDS011;37879;52.986;6.282;2023-04-24T07:16:41;3.45;;;1.30;;
51824;SDS011;37879;52.986;6.282;2023-04-24T07:19:07;2.67;;;1.25;;
51824;SDS011;37879;52.986;6.282;2023-04-24T07:21:32;3.08;;;1.63;;
51824;SDS011;37879;52.986;6.282;2023-04-24T07:23:58;5.28;;;1.80;;
51824;SDS011;37879;52.986;6.282;2023-04-24T07:26:25;3.47;;;1.52;;
51824;SDS011;37879;52.986;6.282;2023-04-24T07:28:52;3.03;;;0.95;;
51824;SDS011;37879;52.986;6.282;2023-04-24T07:31:18;3.13;;;1.60;;
51824;SDS011;37879;52.986;6.282;2023-04-24T07:33:43;3.30;;;1.45;;
51824;SDS011;37879;52.986;6.282;2023-04-24T07:36:09;4.95;;;2.03;;
51824;SDS011;37879;52.986;6.282;2023-04-24T07:38:40;4.72;;;1.92;;
51824;SDS011;37879;52.986;6.282;2023-04-24T07:41:10;5.53;;;2.53;;
51824;SDS011;37879;52.986;6.282;2023-04-24T07:43:35;5.80;;;2.97;;
51824;SDS011;37879;52.986;6.282;2023-04-24T07:46:01;5.97;;;3.10;;
51824;SDS011;37879;52.986;6.282;2023-04-24T07:48:26;7.75;;;3.85;;
51824;SDS011;37879;52.986;6.282;2023-04-24T07:50:52;10.40;;;4.72;;
51824;SDS011;37879;52.986;6.282;2023-04-24T07:53:18;11.50;;;5.95;;
51824;SDS011;37879;52.986;6.282;2023-04-24T07:55:44;10.93;;;6.35;;
51824;SDS011;37879;52.986;6.282;2023-04-24T07:58:10;11.15;;;7.07;;
51824;SDS011;37879;52.986;6.282;2023-04-24T08:00:35;12.40;;;6.10;;
51824;SDS011;37879;52.986;6.282;2023-04-24T08:03:01;10.57;;;6.60;;
51824;SDS011;37879;52.986;6.282;2023-04-24T08:05:26;13.00;;;7.05;;
51824;SDS011;37879;52.986;6.282;2023-04-24T08:07:53;10.27;;;6.25;;
51824;SDS011;37879;52.986;6.282;2023-04-24T08:10:20;10.50;;;6.90;;
51824;SDS011;37879;52.986;6.282;2023-04-24T08:12:47;16.10;;;7.20;;
51824;SDS011;37879;52.986;6.282;2023-04-24T08:15:13;14.23;;;6.95;;
51824;SDS011;37879;52.986;6.282;2023-04-24T08:17:38;13.48;;;6.50;;
51824;SDS011;37879;52.986;6.282;2023-04-24T08:20:04;17.48;;;7.47;;
51824;SDS011;37879;52.986;6.282;2023-04-24T08:22:35;12.38;;;6.88;;
51824;SDS011;37879;52.986;6.282;2023-04-24T08:25:00;11.80;;;7.25;;
51824;SDS011;37879;52.986;6.282;2023-04-24T08:27:27;16.25;;;8.75;;
51824;SDS011;37879;52.986;6.282;2023-04-24T08:29:53;15.60;;;9.15;;
51824;SDS011;37879;52.986;6.282;2023-04-24T08:32:19;32.03;;;9.82;;
51824;SDS011;37879;52.986;6.282;2023-04-24T08:34:45;17.48;;;9.02;;
51824;SDS011;37879;52.986;6.282;2023-04-24T08:37:10;17.20;;;10.82;;
51824;SDS011;37879;52.986;6.282;2023-04-24T08:39:36;19.05;;;10.45;;
51824;SDS011;37879;52.986;6.282;2023-04-24T08:42:02;16.20;;;9.27;;
51824;SDS011;37879;52.986;6.282;2023-04-24T08:44:32;16.10;;;9.45;;
51824;SDS011;37879;52.986;6.282;2023-04-24T08:46:59;16.58;;;9.15;;
51824;SDS011;37879;52.986;6.282;2023-04-24T08:49:27;14.88;;;8.27;;
51824;SDS011;37879;52.986;6.282;2023-04-24T08:51:53;13.82;;;8.05;;
51824;SDS011;37879;52.986;6.282;2023-04-24T08:54:19;15.85;;;6.97;;
51824;SDS011;37879;52.986;6.282;2023-04-24T08:56:47;12.50;;;7.40;;
51824;SDS011;37879;52.986;6.282;2023-04-24T08:59:13;13.15;;;6.78;;
51824;SDS011;37879;52.986;6.282;2023-04-24T09:01:40;11.82;;;7.30;;
51824;SDS011;37879;52.986;6.282;2023-04-24T09:04:07;10.55;;;6.63;;
51824;SDS011;37879;52.986;6.282;2023-04-24T09:06:35;11.40;;;6.40;;
51824;SDS011;37879;52.986;6.282;2023-04-24T09:09:01;11.55;;;5.55;;
51824;SDS011;37879;52.986;6.282;2023-04-24T09:11:29;11.70;;;5.72;;
51824;SDS011;37879;52.986;6.282;2023-04-24T09:13:56;9.60;;;6.07;;
51824;SDS011;37879;52.986;6.282;2023-04-24T09:16:22;8.85;;;5.90;;
51824;SDS011;37879;52.986;6.282;2023-04-24T09:18:50;11.38;;;6.97;;
51824;SDS011;37879;52.986;6.282;2023-04-24T09:21:16;7.70;;;4.65;;
51824;SDS011;37879;52.986;6.282;2023-04-24T09:23:42;12.52;;;6.10;;
51824;SDS011;37879;52.986;6.282;2023-04-24T09:26:08;8.38;;;5.65;;
51824;SDS011;37879;52.986;6.282;2023-04-24T09:28:36;11.75;;;5.35;;
51824;SDS011;37879;52.986;6.282;2023-04-24T09:33:36;19.27;;;6.90;;
51824;SDS011;37879;52.986;6.282;2023-04-24T09:36:02;8.10;;;4.72;;
51824;SDS011;37879;52.986;6.282;2023-04-24T09:38:35;11.15;;;6.28;;
51824;SDS011;37879;52.986;6.282;2023-04-24T09:41:03;10.57;;;5.35;;
51824;SDS011;37879;52.986;6.282;2023-04-24T09:43:31;10.38;;;4.50;;
51824;SDS011;37879;52.986;6.282;2023-04-24T09:45:57;9.90;;;3.72;;
51824;SDS011;37879;52.986;6.282;2023-04-24T09:48:31;9.52;;;3.85;;
51824;SDS011;37879;52.986;6.282;2023-04-24T09:51:01;8.52;;;3.90;;
51824;SDS011;37879;52.986;6.282;2023-04-24T09:53:29;7.93;;;3.30;;
51824;SDS011;37879;52.986;6.282;2023-04-24T09:55:55;11.93;;;4.75;;
51824;SDS011;37879;52.986;6.282;2023-04-24T09:58:27;11.05;;;3.67;;
51824;SDS011;37879;52.986;6.282;2023-04-24T10:00:54;10.90;;;3.90;;
51824;SDS011;37879;52.986;6.282;2023-04-24T10:03:21;9.07;;;3.50;;
51824;SDS011;37879;52.986;6.282;2023-04-24T10:05:51;6.45;;;3.50;;
51824;SDS011;37879;52.986;6.282;2023-04-24T10:08:17;11.88;;;3.55;;
51824;SDS011;37879;52.986;6.282;2023-04-24T10:10:45;8.95;;;4.45;;
51824;SDS011;37879;52.986;6.282;2023-04-24T10:13:12;7.22;;;2.80;;
51824;SDS011;37879;52.986;6.282;2023-04-24T10:15:40;8.75;;;3.05;;
51824;SDS011;37879;52.986;6.282;2023-04-24T10:18:07;9.80;;;3.28;;
51824;SDS011;37879;52.986;6.282;2023-04-24T10:20:34;9.43;;;2.75;;
51824;SDS011;37879;52.986;6.282;2023-04-24T10:23:01;8.80;;;2.60;;
51824;SDS011;37879;52.986;6.282;2023-04-24T10:25:29;10.18;;;3.15;;
51824;SDS011;37879;52.986;6.282;2023-04-24T10:27:57;9.30;;;3.25;;
51824;SDS011;37879;52.986;6.282;2023-04-24T10:30:29;11.05;;;2.53;;
51824;SDS011;37879;52.986;6.282;2023-04-24T10:32:57;6.13;;;2.00;;
51824;SDS011;37879;52.986;6.282;2023-04-24T10:35:24;14.27;;;2.70;;
51824;SDS011;37879;52.986;6.282;2023-04-24T10:37:59;7.13;;;2.10;;
51824;SDS011;37879;52.986;6.282;2023-04-24T10:40:37;4.03;;;2.28;;
51824;SDS011;37879;52.986;6.282;2023-04-24T10:43:06;9.60;;;3.08;;
51824;SDS011;37879;52.986;6.282;2023-04-24T10:45:34;4.78;;;1.80;;
51824;SDS011;37879;52.986;6.282;2023-04-24T10:48:07;10.70;;;3.10;;
51824;SDS011;37879;52.986;6.282;2023-04-24T10:50:44;11.93;;;2.90;;
51824;SDS011;37879;52.986;6.282;2023-04-24T10:53:15;11.30;;;3.03;;
51824;SDS011;37879;52.986;6.282;2023-04-24T10:55:44;8.25;;;2.40;;
51824;SDS011;37879;52.986;6.282;2023-04-24T10:58:10;5.68;;;2.50;;
51824;SDS011;37879;52.986;6.282;2023-04-24T11:00:37;11.65;;;2.20;;
51824;SDS011;37879;52.986;6.282;2023-04-24T11:03:04;9.52;;;2.13;;
51824;SDS011;37879;52.986;6.282;2023-04-24T11:05:50;9.18;;;2.00;;
51824;SDS011;37879;52.986;6.282;2023-04-24T11:08:24;8.07;;;2.03;;
51824;SDS011;37879;52.986;6.282;2023-04-24T11:10:56;9.88;;;2.13;;
51824;SDS011;37879;52.986;6.282;2023-04-24T11:13:26;4.28;;;1.70;;
51824;SDS011;37879;52.986;6.282;2023-04-24T11:32:17;5.38;;;1.20;;
51824;SDS011;37879;52.986;6.282;2023-04-24T11:34:51;7.45;;;1.90;;
51824;SDS011;37879;52.986;6.282;2023-04-24T11:37:21;5.03;;;1.60;;
51824;SDS011;37879;52.986;6.282;2023-04-24T11:39:56;4.93;;;1.40;;
51824;SDS011;37879;52.986;6.282;2023-04-24T11:42:23;5.78;;;1.40;;
51824;SDS011;37879;52.986;6.282;2023-04-24T11:44:51;8.05;;;1.77;;
51824;SDS011;37879;52.986;6.282;2023-04-24T11:47:18;3.65;;;1.80;;
51824;SDS011;37879;52.986;6.282;2023-04-24T11:49:43;7.35;;;2.28;;
51824;SDS011;37879;52.986;6.282;2023-04-24T11:52:09;6.05;;;1.52;;
51824;SDS011;37879;52.986;6.282;2023-04-24T11:54:36;9.13;;;1.70;;
51824;SDS011;37879;52.986;6.282;2023-04-24T11:57:05;8.27;;;1.77;;
51824;SDS011;37879;52.986;6.282;2023-04-24T11:59:40;5.22;;;1.00;;
51824;SDS011;37879;52.986;6.282;2023-04-24T12:02:07;3.90;;;1.98;;
51824;SDS011;37879;52.986;6.282;2023-04-24T12:04:42;5.15;;;1.00;;
51824;SDS011;37879;52.986;6.282;2023-04-24T12:07:08;3.63;;;1.53;;
51824;SDS011;37879;52.986;6.282;2023-04-24T12:09:43;3.95;;;1.42;;
51824;SDS011;37879;52.986;6.282;2023-04-24T12:12:12;3.17;;;0.93;;
51824;SDS011;37879;52.986;6.282;2023-04-24T12:14:47;1.52;;;0.55;;
51824;SDS011;37879;52.986;6.282;2023-04-24T12:17:14;3.55;;;0.85;;
51824;SDS011;37879;52.986;6.282;2023-04-24T12:19:44;3.35;;;1.15;;
51824;SDS011;37879;52.986;6.282;2023-04-24T12:22:11;2.83;;;0.77;;
51824;SDS011;37879;52.986;6.282;2023-04-24T12:24:55;3.95;;;0.93;;
51824;SDS011;37879;52.986;6.282;2023-04-24T12:27:22;3.88;;;1.10;;
51824;SDS011;37879;52.986;6.282;2023-04-24T12:29:57;1.85;;;0.60;;
51824;SDS011;37879;52.986;6.282;2023-04-24T12:32:24;1.95;;;0.60;;
51824;SDS011;37879;52.986;6.282;2023-04-24T12:34:50;2.80;;;1.05;;
51824;SDS011;37879;52.986;6.282;2023-04-24T12:37:17;3.15;;;0.93;;
51824;SDS011;37879;52.986;6.282;2023-04-24T12:39:59;4.63;;;0.90;;
51824;SDS011;37879;52.986;6.282;2023-04-24T12:42:28;6.43;;;0.93;;
51824;SDS011;37879;52.986;6.282;2023-04-24T12:44:58;3.88;;;0.85;;
51824;SDS011;37879;52.986;6.282;2023-04-24T12:47:32;2.67;;;0.80;;
51824;SDS011;37879;52.986;6.282;2023-04-24T12:49:58;2.15;;;0.90;;
51824;SDS011;37879;52.986;6.282;2023-04-24T12:52:27;2.67;;;1.05;;
51824;SDS011;37879;52.986;6.282;2023-04-24T12:54:54;3.92;;;1.08;;
51824;SDS011;37879;52.986;6.282;2023-04-24T12:57:22;4.13;;;0.93;;
51824;SDS011;37879;52.986;6.282;2023-04-24T12:59:48;16.67;;;1.48;;
51824;SDS011;37879;52.986;6.282;2023-04-24T13:02:13;3.42;;;1.00;;
51824;SDS011;37879;52.986;6.282;2023-04-24T13:04:43;7.93;;;1.10;;
51824;SDS011;37879;52.986;6.282;2023-04-24T13:07:10;9.38;;;1.98;;
51824;SDS011;37879;52.986;6.282;2023-04-24T13:09:36;1.80;;;0.65;;
51824;SDS011;37879;52.986;6.282;2023-04-24T13:12:02;5.05;;;0.75;;
51824;SDS011;37879;52.986;6.282;2023-04-24T13:14:27;2.00;;;0.38;;
51824;SDS011;37879;52.986;6.282;2023-04-24T13:16:53;5.07;;;1.13;;
51824;SDS011;37879;52.986;6.282;2023-04-24T13:19:19;3.17;;;0.90;;
51824;SDS011;37879;52.986;6.282;2023-04-24T13:21:44;2.50;;;0.57;;
51824;SDS011;37879;52.986;6.282;2023-04-24T13:24:10;3.13;;;1.00;;
51824;SDS011;37879;52.986;6.282;2023-04-24T13:26:36;4.88;;;1.10;;
51824;SDS011;37879;52.986;6.282;2023-04-24T13:29:02;3.97;;;0.82;;
51824;SDS011;37879;52.986;6.282;2023-04-24T13:31:28;3.45;;;0.68;;
51824;SDS011;37879;52.986;6.282;2023-04-24T13:33:54;1.92;;;0.65;;
51824;SDS011;37879;52.986;6.282;2023-04-24T13:36:20;2.80;;;0.57;;
51824;SDS011;37879;52.986;6.282;2023-04-24T13:38:46;3.40;;;1.20;;
51824;SDS011;37879;52.986;6.282;2023-04-24T13:41:11;2.63;;;0.70;;
51824;SDS011;37879;52.986;6.282;2023-04-24T13:43:37;3.42;;;0.70;;
51824;SDS011;37879;52.986;6.282;2023-04-24T13:46:03;3.20;;;1.15;;
51824;SDS011;37879;52.986;6.282;2023-04-24T13:48:29;4.18;;;0.93;;
51824;SDS011;37879;52.986;6.282;2023-04-24T13:50:55;5.20;;;1.00;;
51824;SDS011;37879;52.986;6.282;2023-04-24T13:53:21;5.35;;;1.10;;
51824;SDS011;37879;52.986;6.282;2023-04-24T13:55:46;6.72;;;1.10;;
51824;SDS011;37879;52.986;6.282;2023-04-24T13:58:12;4.00;;;1.33;;
51824;SDS011;37879;52.986;6.282;2023-04-24T14:00:38;7.93;;;1.20;;
51824;SDS011;37879;52.986;6.282;2023-04-24T14:03:04;6.50;;;1.30;;
51824;SDS011;37879;52.986;6.282;2023-04-24T14:05:30;4.47;;;1.40;;
51824;SDS011;37879;52.986;6.282;2023-04-24T14:07:56;8.00;;;1.38;;
51824;SDS011;37879;52.986;6.282;2023-04-24T14:10:22;6.10;;;1.83;;
51824;SDS011;37879;52.986;6.282;2023-04-24T14:12:48;5.72;;;1.35;;
51824;SDS011;37879;52.986;6.282;2023-04-24T14:15:13;7.55;;;2.00;;
51824;SDS011;37879;52.986;6.282;2023-04-24T14:17:39;6.55;;;1.92;;
51824;SDS011;37879;52.986;6.282;2023-04-24T14:20:05;5.40;;;1.73;;
51824;SDS011;37879;52.986;6.282;2023-04-24T14:22:32;4.50;;;1.23;;
51824;SDS011;37879;52.986;6.282;2023-04-24T14:24:58;6.57;;;1.35;;
51824;SDS011;37879;52.986;6.282;2023-04-24T14:27:24;3.63;;;1.35;;
51824;SDS011;37879;52.986;6.282;2023-04-24T14:29:50;10.07;;;2.22;;
51824;SDS011;37879;52.986;6.282;2023-04-24T14:32:16;10.70;;;2.25;;
51824;SDS011;37879;52.986;6.282;2023-04-24T14:34:42;4.82;;;1.40;;
51824;SDS011;37879;52.986;6.282;2023-04-24T14:37:08;10.95;;;2.25;;
51824;SDS011;37879;52.986;6.282;2023-04-24T14:39:33;13.60;;;2.80;;
51824;SDS011;37879;52.986;6.282;2023-04-24T14:41:59;6.65;;;2.10;;
51824;SDS011;37879;52.986;6.282;2023-04-24T14:44:26;7.90;;;2.22;;
51824;SDS011;37879;52.986;6.282;2023-04-24T14:46:51;8.38;;;2.20;;
51824;SDS011;37879;52.986;6.282;2023-04-24T14:49:18;10.63;;;2.75;;
51824;SDS011;37879;52.986;6.282;2023-04-24T14:51:43;4.28;;;1.80;;
51824;SDS011;37879;52.986;6.282;2023-04-24T14:54:09;6.47;;;2.50;;
51824;SDS011;37879;52.986;6.282;2023-04-24T14:56:35;5.10;;;2.08;;
51824;SDS011;37879;52.986;6.282;2023-04-24T14:59:00;9.10;;;2.50;;
51824;SDS011;37879;52.986;6.282;2023-04-24T15:01:27;9.23;;;2.38;;